createdAt,value
2017-08-21T00:02:02.748Z,55.70
2017-08-21T00:04:37.293Z,55.30
2017-08-21T00:07:11.882Z,55.30
2017-08-21T00:09:46.406Z,55.30
2017-08-21T00:12:20.985Z,55.40
2017-08-21T00:14:55.581Z,55.40
2017-08-21T00:17:30.122Z,55.50
2017-08-21T00:20:04.738Z,55.60
2017-08-21T00:22:39.397Z,55.80
2017-08-21T00:28:12.452Z,55.70
2017-08-21T00:30:48.474Z,55.60
2017-08-21T00:33:23.102Z,55.80
2017-08-21T00:35:57.733Z,56.00
2017-08-21T00:38:32.322Z,56.00
2017-08-21T00:41:06.861Z,56.00
2017-08-21T00:43:41.466Z,55.90
2017-08-21T00:46:16.001Z,55.90
2017-08-21T00:48:50.570Z,56.00
2017-08-21T00:51:25.143Z,56.00
2017-08-21T00:53:59.561Z,56.20
2017-08-21T00:56:34.125Z,56.30
2017-08-21T00:59:08.757Z,56.20
2017-08-21T01:01:43.234Z,56.30
2017-08-21T01:04:17.654Z,56.00
2017-08-21T01:06:52.297Z,55.90
2017-08-21T01:09:26.902Z,56.00
2017-08-21T01:12:01.462Z,56.00
2017-08-21T01:14:36.042Z,56.20
2017-08-21T01:17:10.543Z,56.10
2017-08-21T01:19:45.141Z,56.10
2017-08-21T01:22:19.713Z,56.20
2017-08-21T01:24:54.260Z,56.20
2017-08-21T01:27:28.866Z,56.40
2017-08-21T01:30:03.422Z,56.20
2017-08-21T01:32:45.945Z,56.20
2017-08-21T01:35:30.981Z,56.30
2017-08-21T01:38:05.471Z,56.30
2017-08-21T01:40:40.049Z,56.20
2017-08-21T01:43:14.594Z,56.10
2017-08-21T01:45:49.186Z,56.10
2017-08-21T01:48:23.750Z,56.10
2017-08-21T01:50:58.346Z,56.20
2017-08-21T01:53:32.610Z,56.20
2017-08-21T01:56:07.274Z,56.30
2017-08-21T01:58:41.782Z,56.30
2017-08-21T02:01:16.337Z,56.40
2017-08-21T02:03:50.942Z,56.40
2017-08-21T02:06:25.493Z,56.60
2017-08-21T02:08:59.992Z,56.80
2017-08-21T02:11:34.558Z,56.70
2017-08-21T02:14:09.142Z,56.60
2017-08-21T02:16:43.782Z,56.80
2017-08-21T02:19:18.352Z,57.10
2017-08-21T02:21:52.941Z,57.10
2017-08-21T02:24:27.349Z,57.00
2017-08-21T02:27:01.953Z,57.20
2017-08-21T02:29:36.744Z,57.30
2017-08-21T02:32:11.234Z,57.30
2017-08-21T02:34:45.853Z,57.60
2017-08-21T02:37:20.402Z,57.80
2017-08-21T02:39:54.985Z,57.70
2017-08-21T02:42:29.563Z,57.80
2017-08-21T02:45:04.100Z,57.70
2017-08-21T02:47:39.327Z,57.30
2017-08-21T02:50:34.382Z,57.70
2017-08-21T02:53:09.002Z,57.30
2017-08-21T02:55:43.545Z,57.30
2017-08-21T02:58:18.067Z,57.30
2017-08-21T03:00:52.620Z,57.20
2017-08-21T03:03:27.404Z,57.20
2017-08-21T03:06:01.893Z,57.20
2017-08-21T03:08:36.498Z,57.10
2017-08-21T03:11:11.087Z,57.00
2017-08-21T03:13:45.648Z,57.10
2017-08-21T03:16:20.234Z,57.10
2017-08-21T03:18:54.811Z,57.00
2017-08-21T03:21:29.419Z,57.00
2017-08-21T03:24:03.883Z,57.20
2017-08-21T03:26:38.490Z,57.30
2017-08-21T03:29:13.094Z,57.40
2017-08-21T03:31:47.638Z,57.50
2017-08-21T03:34:22.138Z,57.80
2017-08-21T03:36:56.719Z,58.40
2017-08-21T03:39:31.267Z,58.70
2017-08-21T03:42:05.847Z,58.70
2017-08-21T03:44:40.458Z,58.90
2017-08-21T03:47:14.993Z,58.90
2017-08-21T03:49:49.594Z,58.80
2017-08-21T03:52:24.145Z,58.20
2017-08-21T03:54:58.862Z,58.40
2017-08-21T03:57:33.448Z,58.40
2017-08-21T04:00:10.926Z,58.30
2017-08-21T04:02:51.900Z,58.50
2017-08-21T04:05:27.698Z,58.50
2017-08-21T04:08:02.253Z,58.20
2017-08-21T04:10:41.526Z,58.00
2017-08-21T04:13:16.001Z,58.10
2017-08-21T04:15:50.542Z,57.90
2017-08-21T04:18:25.055Z,58.10
2017-08-21T04:21:12.380Z,57.80
2017-08-21T04:23:46.854Z,57.80
2017-08-21T04:26:21.469Z,57.70
2017-08-21T04:28:56.086Z,57.60
2017-08-21T04:31:30.847Z,57.40
2017-08-21T04:34:05.426Z,57.30
2017-08-21T04:36:40.017Z,57.40
2017-08-21T04:39:14.724Z,57.20
2017-08-21T04:41:49.269Z,56.40
2017-08-21T04:44:23.791Z,55.70
2017-08-21T04:46:58.315Z,54.60
2017-08-21T04:49:32.814Z,53.60
2017-08-21T04:52:07.397Z,53.60
2017-08-21T04:54:41.911Z,53.20
2017-08-21T04:57:16.526Z,53.20
2017-08-21T04:59:51.209Z,53.10
2017-08-21T05:02:25.851Z,53.00
2017-08-21T05:05:00.498Z,53.50
2017-08-21T05:07:35.026Z,54.00
2017-08-21T05:12:59.474Z,54.00
2017-08-21T05:15:34.098Z,53.90
2017-08-21T05:18:08.659Z,54.00
2017-08-21T05:20:43.174Z,53.70
2017-08-21T05:23:17.740Z,53.40
2017-08-21T05:25:52.366Z,53.30
2017-08-21T05:28:26.925Z,52.80
2017-08-21T05:31:01.426Z,52.80
2017-08-21T05:33:35.950Z,52.30
2017-08-21T05:36:10.521Z,52.20
2017-08-21T05:38:44.957Z,52.00
2017-08-21T05:41:19.573Z,51.50
2017-08-21T05:43:54.033Z,51.20
2017-08-21T05:46:28.638Z,51.10
2017-08-21T05:49:03.194Z,50.30
2017-08-21T05:51:37.759Z,50.30
2017-08-21T05:54:12.342Z,50.60
2017-08-21T05:56:46.885Z,50.00
2017-08-21T05:59:21.362Z,49.70
2017-08-21T06:01:56.021Z,50.30
2017-08-21T06:04:30.593Z,49.90
2017-08-21T06:07:05.190Z,49.80
2017-08-21T06:09:39.615Z,49.90
2017-08-21T06:12:14.200Z,49.60
2017-08-21T06:14:48.822Z,49.50
2017-08-21T06:17:23.387Z,49.40
2017-08-21T06:19:57.857Z,49.00
2017-08-21T06:22:32.406Z,48.90
2017-08-21T06:25:15.608Z,48.70
2017-08-21T06:27:50.138Z,48.60
2017-08-21T06:30:24.746Z,48.20
2017-08-21T06:32:59.354Z,47.70
2017-08-21T06:35:33.914Z,47.30
2017-08-21T06:38:08.401Z,47.80
2017-08-21T06:40:42.978Z,48.10
2017-08-21T06:43:17.474Z,48.40
2017-08-21T06:45:52.008Z,48.80
2017-08-21T06:48:26.665Z,49.00
2017-08-21T06:51:01.210Z,48.90
2017-08-21T06:53:35.705Z,48.50
2017-08-21T06:56:10.256Z,48.00
2017-08-21T06:58:44.746Z,48.00
2017-08-21T07:01:19.317Z,47.50
2017-08-21T07:03:53.962Z,46.90
2017-08-21T07:06:28.562Z,46.50
2017-08-21T07:09:02.870Z,45.70
2017-08-21T07:11:37.281Z,45.40
2017-08-21T07:14:11.833Z,45.10
2017-08-21T07:16:46.452Z,45.30
2017-08-21T07:19:20.945Z,44.80
2017-08-21T07:21:55.806Z,44.00
2017-08-21T07:24:30.350Z,44.00
2017-08-21T07:27:04.922Z,43.80
2017-08-21T07:29:39.365Z,43.50
2017-08-21T07:32:13.930Z,43.20
2017-08-21T07:34:48.354Z,43.80
2017-08-21T07:37:22.938Z,43.00
2017-08-21T07:39:57.558Z,42.60
2017-08-21T07:42:32.105Z,42.10
2017-08-21T07:45:15.875Z,42.00
2017-08-21T07:47:50.455Z,42.10
2017-08-21T07:50:25.026Z,41.40
2017-08-21T07:52:59.449Z,41.60
2017-08-21T07:55:34.060Z,40.80
2017-08-21T07:58:08.641Z,40.80
2017-08-21T08:00:43.193Z,40.10
2017-08-21T08:03:17.719Z,39.70
2017-08-21T08:05:52.253Z,39.30
2017-08-21T08:08:26.857Z,39.50
2017-08-21T08:11:01.428Z,39.00
2017-08-21T08:13:36.070Z,38.20
2017-08-21T08:16:10.717Z,37.60
2017-08-21T08:18:45.161Z,37.40
2017-08-21T08:21:19.683Z,37.50
2017-08-21T08:23:54.233Z,37.20
2017-08-21T08:26:28.889Z,36.10
2017-08-21T08:29:03.414Z,36.60
2017-08-21T08:31:37.958Z,36.70
2017-08-21T08:34:12.562Z,36.50
2017-08-21T08:36:47.070Z,36.00
2017-08-21T08:39:21.818Z,36.00
2017-08-21T08:41:56.513Z,35.80
2017-08-21T08:44:31.077Z,35.20
2017-08-21T08:47:05.622Z,35.70
2017-08-21T08:49:40.133Z,35.70
2017-08-21T08:52:14.661Z,35.50
2017-08-21T08:54:49.162Z,35.40
2017-08-21T08:57:23.697Z,34.70
2017-08-21T08:59:58.214Z,34.20
2017-08-21T09:02:32.790Z,33.50
2017-08-21T09:05:15.370Z,34.30
2017-08-21T09:07:49.985Z,33.90
2017-08-21T09:10:24.698Z,33.00
2017-08-21T09:12:59.177Z,32.80
2017-08-21T09:15:33.731Z,32.20
2017-08-21T09:18:08.286Z,31.80
2017-08-21T09:20:42.822Z,31.70
2017-08-21T09:23:17.381Z,31.10
2017-08-21T09:25:51.966Z,30.70
2017-08-21T09:28:26.626Z,30.60
2017-08-21T09:31:01.213Z,31.20
2017-08-21T09:33:35.770Z,30.80
2017-08-21T09:36:10.332Z,30.50
2017-08-21T09:38:44.885Z,30.30
2017-08-21T09:41:19.402Z,30.20
2017-08-21T09:43:53.914Z,30.40
2017-08-21T09:46:28.482Z,30.20
2017-08-21T09:49:03.058Z,30.50
2017-08-21T09:51:37.614Z,30.80
2017-08-21T09:54:12.106Z,30.50
2017-08-21T09:56:46.655Z,30.10
2017-08-21T09:59:21.072Z,30.80
2017-08-21T10:01:55.990Z,30.60
2017-08-21T10:04:30.537Z,30.20
2017-08-21T10:07:05.117Z,29.50
2017-08-21T10:09:39.647Z,29.40
2017-08-21T10:12:14.238Z,28.80
2017-08-21T10:14:48.822Z,28.50
2017-08-21T10:17:23.418Z,29.20
2017-08-21T10:19:58.042Z,29.60
2017-08-21T10:22:32.663Z,29.10
2017-08-21T10:25:15.542Z,29.80
2017-08-21T10:27:50.154Z,30.70
2017-08-21T10:30:24.729Z,29.70
2017-08-21T10:32:59.174Z,30.70
2017-08-21T10:35:33.741Z,29.60
2017-08-21T10:38:08.325Z,29.20
2017-08-21T10:40:42.877Z,29.20
2017-08-21T10:43:17.425Z,29.40
2017-08-21T10:45:53.143Z,29.60
2017-08-21T10:48:27.689Z,29.30
2017-08-21T10:51:02.289Z,29.00
2017-08-21T10:53:36.819Z,28.50
2017-08-21T10:56:11.442Z,28.40
2017-08-21T10:58:45.978Z,28.30
2017-08-21T11:01:20.524Z,29.10
2017-08-21T11:03:55.199Z,29.60
2017-08-21T11:06:29.795Z,29.20
2017-08-21T11:09:03.685Z,28.10
2017-08-21T11:11:38.109Z,28.10
2017-08-21T11:14:12.559Z,28.20
2017-08-21T11:16:47.129Z,27.40
2017-08-21T11:19:21.702Z,27.50
2017-08-21T11:21:56.261Z,27.00
2017-08-21T11:24:30.856Z,26.80
2017-08-21T11:27:05.397Z,27.20
2017-08-21T11:29:40.049Z,27.60
2017-08-21T11:32:14.554Z,28.50
2017-08-21T11:34:49.066Z,29.40
2017-08-21T11:37:23.707Z,28.00
2017-08-21T11:39:58.254Z,28.30
2017-08-21T11:42:32.949Z,28.60
2017-08-21T11:47:49.060Z,28.70
2017-08-21T11:50:30.410Z,28.30
2017-08-21T11:53:05.350Z,28.30
2017-08-21T11:55:39.891Z,28.10
2017-08-21T11:58:14.102Z,28.70
2017-08-21T12:00:48.554Z,28.80
2017-08-21T12:03:23.030Z,29.20
2017-08-21T12:05:57.602Z,28.60
2017-08-21T12:08:32.218Z,29.30
2017-08-21T12:11:06.786Z,29.60
2017-08-21T12:13:41.257Z,29.20
2017-08-21T12:16:15.906Z,29.40
2017-08-21T12:18:50.402Z,29.40
2017-08-21T12:21:24.991Z,29.20
2017-08-21T12:23:59.486Z,29.60
2017-08-21T12:26:34.093Z,29.50
2017-08-21T12:29:08.727Z,29.20
2017-08-21T12:31:43.285Z,29.10
2017-08-21T12:34:17.910Z,29.40
2017-08-21T12:36:52.454Z,29.40
2017-08-21T12:39:27.019Z,30.40
2017-08-21T12:42:01.540Z,30.30
2017-08-21T12:44:35.983Z,30.40
2017-08-21T12:47:10.614Z,30.30
2017-08-21T12:49:45.152Z,30.20
2017-08-21T12:52:19.658Z,30.80
2017-08-21T12:54:54.110Z,31.30
2017-08-21T12:57:28.655Z,31.00
2017-08-21T13:00:03.150Z,31.70
2017-08-21T13:02:37.822Z,31.90
2017-08-21T13:05:29.554Z,31.80
2017-08-21T13:08:04.243Z,32.10
2017-08-21T13:10:38.757Z,31.90
2017-08-21T13:13:13.289Z,32.30
2017-08-21T13:15:47.842Z,32.90
2017-08-21T13:18:22.444Z,33.20
2017-08-21T13:20:57.092Z,31.40
2017-08-21T13:23:31.606Z,31.40
2017-08-21T13:26:06.113Z,32.00
2017-08-21T13:28:40.615Z,32.80
2017-08-21T13:31:15.154Z,32.20
2017-08-21T13:33:49.718Z,32.40
2017-08-21T13:36:24.341Z,32.80
2017-08-21T13:38:59.001Z,32.80
2017-08-21T13:41:33.502Z,33.00
2017-08-21T13:44:08.063Z,32.60
2017-08-21T13:46:42.538Z,32.90
2017-08-21T13:49:17.001Z,33.10
2017-08-21T13:51:51.650Z,33.50
2017-08-21T13:54:26.231Z,33.70
2017-08-21T13:57:00.742Z,34.70
2017-08-21T13:59:35.384Z,35.30
2017-08-21T14:02:10.026Z,35.70
2017-08-21T14:04:44.358Z,36.10
2017-08-21T14:07:18.966Z,35.60
2017-08-21T14:09:53.530Z,35.70
2017-08-21T14:12:28.129Z,35.20
2017-08-21T14:15:02.582Z,34.50
2017-08-21T14:17:37.115Z,34.70
2017-08-21T14:20:19.298Z,34.40
2017-08-21T14:22:53.822Z,35.10
2017-08-21T14:25:28.410Z,35.00
2017-08-21T14:28:02.992Z,35.00
2017-08-21T14:30:37.710Z,34.70
2017-08-21T14:33:11.931Z,35.00
2017-08-21T14:35:46.615Z,34.60
2017-08-21T14:38:21.163Z,34.40
2017-08-21T14:40:55.734Z,34.50
2017-08-21T14:43:30.434Z,34.50
2017-08-21T14:46:04.994Z,34.60
2017-08-21T14:48:39.442Z,35.00
2017-08-21T14:51:14.034Z,34.80
2017-08-21T14:53:48.682Z,35.10
2017-08-21T14:56:23.193Z,35.40
2017-08-21T14:58:57.617Z,36.30
2017-08-21T15:01:32.270Z,36.70
2017-08-21T15:04:06.902Z,37.10
2017-08-21T15:06:41.333Z,37.10
2017-08-21T15:09:15.881Z,37.30
2017-08-21T15:11:50.142Z,37.70
2017-08-21T15:14:24.646Z,37.70
2017-08-21T15:16:59.198Z,37.80
2017-08-21T15:19:33.746Z,36.80
2017-08-21T15:22:08.382Z,37.50
2017-08-21T15:24:42.710Z,37.40
2017-08-21T15:27:17.266Z,37.70
2017-08-21T15:29:51.830Z,37.70
2017-08-21T15:32:26.530Z,38.30
2017-08-21T15:35:01.086Z,38.70
2017-08-21T15:37:35.665Z,39.20
2017-08-21T15:40:15.258Z,39.30
2017-08-21T15:42:49.799Z,38.80
2017-08-21T15:45:24.544Z,39.60
2017-08-21T15:47:59.183Z,39.10
2017-08-21T15:50:33.750Z,39.10
2017-08-21T15:53:08.205Z,39.60
2017-08-21T15:55:42.750Z,39.40
2017-08-21T15:58:17.194Z,39.50
2017-08-21T16:00:51.737Z,40.30
2017-08-21T16:03:26.598Z,40.30
2017-08-21T16:06:01.036Z,40.60
2017-08-21T16:08:35.628Z,40.20
2017-08-21T16:11:10.199Z,40.60
2017-08-21T16:13:44.828Z,40.40
2017-08-21T16:16:19.410Z,40.80
2017-08-21T16:18:53.850Z,40.40
2017-08-21T16:21:28.462Z,40.60
2017-08-21T16:24:02.942Z,40.80
2017-08-21T16:26:37.502Z,40.90
2017-08-21T16:29:12.003Z,40.70
2017-08-21T16:31:46.378Z,41.20
2017-08-21T16:34:20.933Z,41.10
2017-08-21T16:36:55.288Z,41.60
2017-08-21T16:39:29.762Z,41.50
2017-08-21T16:42:04.093Z,41.20
2017-08-21T16:44:38.670Z,42.10
2017-08-21T16:47:13.214Z,41.80
2017-08-21T16:49:47.936Z,41.70
2017-08-21T16:52:22.618Z,41.80
2017-08-21T16:54:57.150Z,41.40
2017-08-21T16:57:31.713Z,41.30
2017-08-21T17:00:16.000Z,41.60
2017-08-21T17:02:50.636Z,41.70
2017-08-21T17:05:25.154Z,41.70
2017-08-21T17:07:59.752Z,42.00
2017-08-21T17:10:34.359Z,42.40
2017-08-21T17:13:08.818Z,42.50
2017-08-21T17:15:43.445Z,42.30
2017-08-21T17:18:17.914Z,42.90
2017-08-21T17:20:52.569Z,43.00
2017-08-21T17:23:27.188Z,43.10
2017-08-21T17:26:01.811Z,43.20
2017-08-21T17:28:36.470Z,43.40
2017-08-21T17:31:11.209Z,43.10
2017-08-21T17:33:45.761Z,43.40
2017-08-21T17:36:20.496Z,43.90
2017-08-21T17:38:54.950Z,43.60
2017-08-21T17:41:29.609Z,43.60
2017-08-21T17:44:04.092Z,43.70
2017-08-21T17:46:39.331Z,43.80
2017-08-21T17:49:13.970Z,44.00
2017-08-21T17:51:49.201Z,44.10
2017-08-21T17:54:23.730Z,44.10
2017-08-21T17:56:58.371Z,44.40
2017-08-21T17:59:32.904Z,44.60
2017-08-21T18:02:07.531Z,44.70
2017-08-21T18:04:42.193Z,45.00
2017-08-21T18:07:17.507Z,45.10
2017-08-21T18:09:51.918Z,45.60
2017-08-21T18:12:26.467Z,45.80
2017-08-21T18:15:01.197Z,45.60
2017-08-21T18:17:35.867Z,46.00
2017-08-21T18:20:16.729Z,46.10
2017-08-21T18:22:51.287Z,46.60
2017-08-21T18:25:25.841Z,46.50
2017-08-21T18:28:00.493Z,46.70
2017-08-21T18:30:35.042Z,46.50
2017-08-21T18:33:09.642Z,46.90
2017-08-21T18:35:44.162Z,47.10
2017-08-21T18:38:18.854Z,47.00
2017-08-21T18:40:53.533Z,47.00
2017-08-21T18:46:11.874Z,47.40
2017-08-21T18:48:46.393Z,47.40
2017-08-21T18:51:20.995Z,47.60
2017-08-21T18:53:55.731Z,47.70
2017-08-21T18:56:30.349Z,47.90
2017-08-21T18:59:04.914Z,47.80
2017-08-21T19:01:39.517Z,47.90
2017-08-21T19:04:14.089Z,47.70
2017-08-21T19:06:48.677Z,48.00
2017-08-21T19:09:23.150Z,48.10
2017-08-21T19:11:58.167Z,48.30
2017-08-21T19:14:32.666Z,48.20
2017-08-21T19:17:07.294Z,48.50
2017-08-21T19:19:41.922Z,48.60
2017-08-21T19:22:16.482Z,48.60
2017-08-21T19:24:51.103Z,48.70
2017-08-21T19:27:25.742Z,48.50
2017-08-21T19:30:00.413Z,48.40
2017-08-21T19:32:34.477Z,48.90
2017-08-21T19:35:24.932Z,48.80
2017-08-21T19:38:00.106Z,48.80
2017-08-21T19:40:34.645Z,48.70
2017-08-21T19:43:09.099Z,48.80
2017-08-21T19:45:43.625Z,48.70
2017-08-21T19:48:18.177Z,48.70
2017-08-21T19:50:52.783Z,48.80
2017-08-21T19:53:27.582Z,48.90
2017-08-21T19:56:08.046Z,48.80
2017-08-21T19:58:42.594Z,48.80
2017-08-21T20:01:17.138Z,48.70
2017-08-21T20:03:51.653Z,48.80
2017-08-21T20:06:26.300Z,48.90
2017-08-21T20:09:00.853Z,49.10
2017-08-21T20:11:35.526Z,49.00
2017-08-21T20:14:10.154Z,49.30
2017-08-21T20:16:44.744Z,49.40
2017-08-21T20:19:19.186Z,49.50
2017-08-21T20:21:53.594Z,49.90
2017-08-21T20:24:28.118Z,49.80
2017-08-21T20:27:02.613Z,50.00
2017-08-21T20:29:37.283Z,50.10
2017-08-21T20:32:11.834Z,50.20
2017-08-21T20:34:46.431Z,50.20
2017-08-21T20:37:21.053Z,50.60
2017-08-21T20:39:55.534Z,50.80
2017-08-21T20:42:30.209Z,50.90
2017-08-21T20:45:04.686Z,50.90
2017-08-21T20:47:39.254Z,50.90
2017-08-21T20:53:05.993Z,51.20
2017-08-21T20:55:47.325Z,51.30
2017-08-21T20:58:21.885Z,51.30
2017-08-21T21:00:56.458Z,51.40
2017-08-21T21:03:31.030Z,51.50
2017-08-21T21:06:05.726Z,51.40
2017-08-21T21:08:40.286Z,51.50
2017-08-21T21:11:14.929Z,51.40
2017-08-21T21:13:49.466Z,51.60
2017-08-21T21:16:23.989Z,51.40
2017-08-21T21:18:58.618Z,51.60
2017-08-21T21:21:33.278Z,51.70
2017-08-21T21:24:07.982Z,51.70
2017-08-21T21:26:42.478Z,51.70
2017-08-21T21:29:16.987Z,51.90
2017-08-21T21:31:51.541Z,52.00
2017-08-21T21:34:25.958Z,52.10
2017-08-21T21:37:00.554Z,52.20
2017-08-21T21:39:35.102Z,52.20
2017-08-21T21:42:09.754Z,52.30
2017-08-21T21:44:44.390Z,52.20
2017-08-21T21:47:19.094Z,52.30
2017-08-21T21:49:53.754Z,52.30
2017-08-21T21:52:28.242Z,52.40
2017-08-21T21:55:02.738Z,52.60
2017-08-21T21:57:37.283Z,52.80
2017-08-21T22:02:57.658Z,52.90
2017-08-21T22:05:32.214Z,52.90
2017-08-21T22:08:06.731Z,52.80
2017-08-21T22:10:49.766Z,52.90
2017-08-21T22:13:24.277Z,53.10
2017-08-21T22:15:58.806Z,53.30
2017-08-21T22:18:33.389Z,53.60
2017-08-21T22:21:18.610Z,53.60
2017-08-21T22:23:53.118Z,53.80
2017-08-21T22:26:27.682Z,54.00
2017-08-21T22:29:02.253Z,53.90
2017-08-21T22:31:36.870Z,54.00
2017-08-21T22:34:11.433Z,54.30
2017-08-21T22:36:46.011Z,54.40
2017-08-21T22:39:20.424Z,54.40
2017-08-21T22:41:54.989Z,54.60
2017-08-21T22:44:29.413Z,54.50
2017-08-21T22:47:03.982Z,54.70
2017-08-21T22:49:38.558Z,54.70
2017-08-21T22:52:13.132Z,54.80
2017-08-21T22:54:47.610Z,55.10
2017-08-21T22:57:21.813Z,55.00
2017-08-21T22:59:56.374Z,55.20
2017-08-21T23:02:30.925Z,55.20
2017-08-21T23:05:05.557Z,55.20
2017-08-21T23:07:40.146Z,55.30
2017-08-21T23:10:27.548Z,55.40
2017-08-21T23:13:02.035Z,55.40
2017-08-21T23:15:36.606Z,55.50
2017-08-21T23:18:10.690Z,55.60
2017-08-21T23:20:45.220Z,55.30
2017-08-21T23:23:19.882Z,55.50
2017-08-21T23:25:54.426Z,55.30
2017-08-21T23:28:29.050Z,55.20
2017-08-21T23:31:03.617Z,55.30
2017-08-21T23:33:38.126Z,55.30
2017-08-21T23:36:12.649Z,55.10
2017-08-21T23:38:47.198Z,55.10
2017-08-21T23:41:21.738Z,55.00
2017-08-21T23:43:56.338Z,55.00
2017-08-21T23:46:30.917Z,55.20
2017-08-21T23:49:05.382Z,54.90
2017-08-21T23:51:39.934Z,55.10
2017-08-21T23:54:14.562Z,55.00
2017-08-21T23:56:49.098Z,54.90
2017-08-21T23:59:23.666Z,55.00
